createdAt,value
2024-05-09T00:00:36.486Z,99.90
2024-05-09T00:03:08.136Z,99.90
2024-05-09T00:05:36.796Z,99.90
2024-05-09T00:08:04.340Z,99.90
2024-05-09T00:10:36.396Z,99.90
2024-05-09T00:13:06.382Z,99.90
2024-05-09T00:15:34.088Z,99.90
2024-05-09T00:18:02.050Z,99.90
2024-05-09T00:20:37.333Z,99.90
2024-05-09T00:23:08.112Z,99.90
2024-05-09T00:25:35.678Z,99.90
2024-05-09T00:28:03.043Z,99.90
2024-05-09T00:30:34.890Z,99.90
2024-05-09T00:33:05.349Z,99.90
2024-05-09T00:35:33.692Z,99.90
2024-05-09T00:38:00.882Z,99.90
2024-05-09T00:40:38.729Z,99.90
2024-05-09T00:43:08.972Z,99.90
2024-05-09T00:45:35.960Z,99.90
2024-05-09T00:48:08.958Z,99.90
2024-05-09T00:50:41.618Z,99.90
2024-05-09T00:53:11.771Z,99.90
2024-05-09T00:55:39.610Z,99.90
2024-05-09T00:58:09.899Z,99.90
2024-05-09T01:00:40.037Z,99.90
2024-05-09T01:03:13.576Z,99.90
2024-05-09T01:05:42.648Z,99.90
2024-05-09T01:08:10.802Z,99.90
2024-05-09T01:10:38.521Z,99.90
2024-05-09T01:13:06.196Z,99.90
2024-05-09T01:15:34.316Z,99.90
2024-05-09T01:18:04.351Z,99.90
2024-05-09T01:20:39.884Z,99.90
2024-05-09T01:23:10.594Z,99.90
2024-05-09T01:25:37.868Z,99.90
2024-05-09T01:28:05.132Z,99.90
2024-05-09T01:30:35.655Z,99.90
2024-05-09T01:33:07.414Z,99.90
2024-05-09T01:35:36.562Z,99.90
2024-05-09T01:38:03.661Z,99.90
2024-05-09T01:40:37.385Z,99.90
2024-05-09T01:43:07.284Z,99.90
2024-05-09T01:45:34.583Z,99.90
2024-05-09T01:48:02.272Z,99.90
2024-05-09T01:50:38.002Z,99.90
2024-05-09T01:53:09.034Z,99.90
2024-05-09T01:55:36.275Z,99.90
2024-05-09T01:58:03.083Z,99.90
2024-05-09T02:00:38.396Z,99.90
2024-05-09T02:03:12.442Z,99.90
2024-05-09T02:05:43.246Z,99.90
2024-05-09T02:08:15.080Z,99.90
2024-05-09T02:10:43.399Z,99.90
2024-05-09T02:13:10.895Z,99.90
2024-05-09T02:15:37.641Z,99.90
2024-05-09T02:18:05.304Z,99.90
2024-05-09T02:20:36.255Z,99.90
2024-05-09T02:23:06.904Z,99.90
2024-05-09T02:25:34.785Z,99.90
2024-05-09T02:28:01.919Z,99.90
2024-05-09T02:30:38.125Z,99.90
2024-05-09T02:33:09.850Z,99.90
2024-05-09T02:35:38.446Z,99.90
2024-05-09T02:38:05.565Z,99.90
2024-05-09T02:40:37.025Z,99.90
2024-05-09T02:43:06.842Z,99.90
2024-05-09T02:45:34.113Z,99.90
2024-05-09T02:48:01.953Z,99.90
2024-05-09T02:50:34.777Z,99.90
2024-05-09T02:53:06.755Z,99.90
2024-05-09T02:55:34.813Z,99.90
2024-05-09T02:58:02.079Z,99.90
2024-05-09T03:00:37.057Z,99.90
2024-05-09T03:03:13.195Z,99.90
2024-05-09T03:05:43.147Z,99.90
2024-05-09T03:08:10.398Z,99.90
2024-05-09T03:10:38.899Z,99.90
2024-05-09T03:13:16.769Z,99.90
2024-05-09T03:15:44.474Z,99.90
2024-05-09T03:18:12.341Z,99.90
2024-05-09T03:20:40.175Z,99.90
2024-05-09T03:23:08.896Z,99.90
2024-05-09T03:25:36.729Z,99.90
2024-05-09T03:28:04.115Z,99.90
2024-05-09T03:30:39.763Z,99.90
2024-05-09T03:33:20.615Z,99.90
2024-05-09T03:35:48.787Z,99.90
2024-05-09T03:38:16.299Z,99.90
2024-05-09T03:40:50.994Z,99.90
2024-05-09T03:43:19.891Z,99.90
2024-05-09T03:45:49.299Z,99.90
2024-05-09T03:48:17.198Z,99.90
2024-05-09T03:50:44.271Z,99.90
2024-05-09T03:53:12.312Z,99.90
2024-05-09T03:55:39.800Z,99.90
2024-05-09T03:58:07.997Z,99.90
2024-05-09T04:00:39.020Z,99.90
2024-05-09T04:03:10.251Z,99.90
2024-05-09T04:05:41.750Z,99.90
2024-05-09T04:08:10.105Z,99.90
2024-05-09T04:10:37.916Z,99.90
2024-05-09T04:13:05.066Z,99.90
2024-05-09T04:15:32.317Z,99.90
2024-05-09T04:17:59.792Z,99.90
2024-05-09T04:22:57.265Z,99.90
2024-05-09T04:25:24.086Z,99.90
2024-05-09T04:27:55.609Z,99.90
2024-05-09T04:30:34.291Z,99.90
2024-05-09T04:33:08.252Z,99.90
2024-05-09T04:35:37.054Z,99.90
2024-05-09T04:38:04.432Z,99.90
2024-05-09T04:40:34.885Z,99.90
2024-05-09T04:43:13.285Z,99.90
2024-05-09T04:45:41.152Z,99.90
2024-05-09T04:48:09.291Z,99.90
2024-05-09T04:50:38.822Z,99.90
2024-05-09T04:53:09.889Z,99.90
2024-05-09T04:55:39.046Z,99.90
2024-05-09T04:58:08.697Z,99.90
2024-05-09T05:00:38.088Z,99.90
2024-05-09T05:03:13.878Z,99.90
2024-05-09T05:05:44.056Z,99.90
2024-05-09T05:08:13.036Z,99.90
2024-05-09T05:10:41.166Z,99.90
2024-05-09T05:13:18.418Z,99.90
2024-05-09T05:15:58.843Z,99.90
2024-05-09T05:18:28.087Z,99.90
2024-05-09T05:20:56.326Z,99.90
2024-05-09T05:23:23.852Z,99.90
2024-05-09T05:25:55.531Z,99.90
2024-05-09T05:28:23.615Z,99.90
2024-05-09T05:30:50.766Z,99.90
2024-05-09T05:33:23.175Z,99.90
2024-05-09T05:35:51.053Z,99.10
2024-05-09T05:38:18.180Z,99.00
2024-05-09T05:40:45.219Z,97.50
2024-05-09T05:43:21.172Z,96.30
2024-05-09T05:45:48.517Z,94.80
2024-05-09T05:48:17.547Z,93.20
2024-05-09T05:50:45.093Z,92.30
2024-05-09T05:53:12.380Z,91.70
2024-05-09T05:55:40.463Z,89.80
2024-05-09T05:58:10.964Z,88.20
2024-05-09T06:00:40.207Z,82.90
2024-05-09T06:03:10.044Z,79.20
2024-05-09T06:05:39.613Z,78.40
2024-05-09T06:08:07.164Z,74.30
2024-05-09T06:10:38.739Z,73.40
2024-05-09T06:13:11.079Z,71.20
2024-05-09T06:15:38.873Z,63.40
2024-05-09T06:18:07.088Z,57.70
2024-05-09T06:20:36.838Z,55.60
2024-05-09T06:23:10.129Z,53.60
2024-05-09T06:25:37.902Z,52.10
2024-05-09T06:28:06.238Z,50.60
2024-05-09T06:30:39.010Z,48.60
2024-05-09T06:33:11.331Z,47.70
2024-05-09T06:35:40.182Z,46.50
2024-05-09T06:38:10.604Z,46.60
2024-05-09T06:40:43.141Z,46.40
2024-05-09T06:43:17.170Z,44.40
2024-05-09T06:45:49.540Z,42.50
2024-05-09T06:48:19.607Z,41.60
2024-05-09T06:50:47.832Z,40.00
2024-05-09T06:53:15.439Z,39.10
2024-05-09T06:55:42.639Z,39.70
2024-05-09T06:58:10.108Z,39.80
2024-05-09T07:00:39.947Z,37.80
2024-05-09T07:03:18.278Z,38.60
2024-05-09T07:05:47.476Z,40.30
2024-05-09T07:08:16.444Z,39.40
2024-05-09T07:10:44.007Z,38.80
2024-05-09T07:13:11.986Z,39.80
2024-05-09T07:15:40.279Z,38.80
2024-05-09T07:18:18.473Z,39.70
2024-05-09T07:20:48.403Z,37.00
2024-05-09T07:23:16.443Z,37.60
2024-05-09T07:25:44.036Z,38.20
2024-05-09T07:28:19.787Z,38.30
2024-05-09T07:30:46.873Z,39.20
2024-05-09T07:33:18.558Z,39.20
2024-05-09T07:35:45.946Z,39.60
2024-05-09T07:38:13.509Z,36.90
2024-05-09T07:40:42.170Z,40.00
2024-05-09T07:43:11.624Z,39.80
2024-05-09T07:45:48.821Z,41.70
2024-05-09T07:53:38.771Z,43.40
2024-05-09T07:56:09.620Z,41.30
2024-05-09T07:58:37.217Z,40.20
2024-05-09T08:01:05.711Z,38.50
2024-05-09T08:03:32.969Z,37.60
2024-05-09T08:05:59.926Z,37.80
2024-05-09T08:08:27.241Z,40.50
2024-05-09T08:10:54.110Z,42.00
2024-05-09T08:13:21.165Z,40.00
2024-05-09T08:15:48.527Z,39.30
2024-05-09T08:18:15.688Z,38.50
2024-05-09T08:20:43.191Z,35.70
2024-05-09T08:23:11.367Z,35.20
2024-05-09T08:25:38.885Z,33.40
2024-05-09T08:28:06.096Z,35.60
2024-05-09T08:30:37.042Z,35.60
2024-05-09T08:33:06.858Z,36.50
2024-05-09T08:35:35.506Z,34.10
2024-05-09T08:38:07.475Z,34.50
2024-05-09T08:40:37.631Z,35.60
2024-05-09T08:43:12.570Z,37.40
2024-05-09T08:45:45.180Z,37.50
2024-05-09T08:48:15.443Z,37.90
2024-05-09T08:50:45.299Z,37.70
2024-05-09T08:53:13.201Z,36.90
2024-05-09T08:55:43.032Z,37.00
2024-05-09T08:58:16.207Z,36.20
2024-05-09T09:00:44.500Z,35.50
2024-05-09T09:03:20.030Z,34.30
2024-05-09T09:05:52.218Z,33.60
2024-05-09T09:08:20.078Z,32.10
2024-05-09T09:10:47.794Z,31.60
2024-05-09T09:13:14.803Z,30.70
2024-05-09T09:15:51.240Z,30.00
2024-05-09T09:18:19.382Z,28.90
2024-05-09T09:20:46.339Z,29.50
2024-05-09T09:23:13.191Z,31.00
2024-05-09T09:25:40.878Z,32.80
2024-05-09T09:28:09.338Z,34.70
2024-05-09T09:30:43.422Z,35.70
2024-05-09T09:33:11.590Z,38.10
2024-05-09T09:35:40.325Z,39.70
2024-05-09T09:38:08.272Z,40.70
2024-05-09T09:40:40.827Z,40.40
2024-05-09T09:43:19.177Z,37.50
2024-05-09T09:45:50.913Z,36.60
2024-05-09T09:48:19.881Z,37.60
2024-05-09T09:50:48.542Z,39.20
2024-05-09T09:53:16.791Z,35.80
2024-05-09T09:55:44.183Z,37.50
2024-05-09T09:58:14.234Z,37.30
2024-05-09T10:00:42.798Z,36.70
2024-05-09T10:03:09.861Z,36.10
2024-05-09T10:05:39.329Z,34.50
2024-05-09T10:08:09.968Z,31.70
2024-05-09T10:10:37.626Z,32.40
2024-05-09T10:13:06.421Z,35.00
2024-05-09T10:15:48.596Z,37.10
2024-05-09T10:18:15.846Z,39.20
2024-05-09T10:20:47.096Z,39.20
2024-05-09T10:23:34.850Z,38.20
2024-05-09T10:26:06.167Z,35.20
2024-05-09T10:28:38.308Z,32.20
2024-05-09T10:31:13.855Z,32.40
2024-05-09T10:33:50.761Z,31.60
2024-05-09T10:36:23.827Z,30.10
2024-05-09T10:38:52.400Z,31.40
2024-05-09T10:41:21.192Z,31.00
2024-05-09T10:43:49.080Z,30.00
2024-05-09T10:46:16.493Z,29.60
2024-05-09T10:48:44.966Z,28.40
2024-05-09T10:51:13.152Z,28.60
2024-05-09T10:53:44.411Z,29.80
2024-05-09T10:56:14.227Z,29.50
2024-05-09T10:58:41.120Z,28.50
2024-05-09T11:01:12.178Z,28.50
2024-05-09T11:03:40.079Z,27.90
2024-05-09T11:06:07.889Z,28.80
2024-05-09T11:08:36.766Z,29.60
2024-05-09T11:11:08.281Z,28.60
2024-05-09T11:13:37.693Z,29.40
2024-05-09T11:16:07.353Z,29.80
2024-05-09T11:18:38.097Z,29.50
2024-05-09T11:21:13.388Z,28.40
2024-05-09T11:23:41.584Z,29.00
2024-05-09T11:26:09.158Z,27.20
2024-05-09T11:28:36.075Z,29.40
2024-05-09T11:31:08.344Z,30.50
2024-05-09T11:33:46.132Z,30.80
2024-05-09T11:36:14.111Z,29.50
2024-05-09T11:38:41.509Z,29.60
2024-05-09T11:41:08.743Z,31.30
2024-05-09T11:43:35.940Z,28.40
2024-05-09T11:46:03.749Z,27.80
2024-05-09T11:48:32.030Z,29.00
2024-05-09T11:50:59.044Z,27.70
2024-05-09T11:53:25.848Z,27.40
2024-05-09T11:55:53.324Z,27.70
2024-05-09T11:58:21.682Z,28.00
2024-05-09T12:00:48.559Z,27.70
2024-05-09T12:03:15.794Z,28.40
2024-05-09T12:05:43.175Z,28.20
2024-05-09T12:08:10.256Z,27.60
2024-05-09T12:10:37.617Z,28.80
2024-05-09T12:13:06.876Z,29.10
2024-05-09T12:15:37.523Z,29.60
2024-05-09T12:18:06.328Z,27.60
2024-05-09T12:20:37.653Z,27.50
2024-05-09T12:23:08.422Z,27.60
2024-05-09T12:25:36.725Z,27.80
2024-05-09T12:28:04.016Z,27.80
2024-05-09T12:30:36.941Z,28.90
2024-05-09T12:33:11.815Z,29.60
2024-05-09T12:35:40.249Z,27.60
2024-05-09T12:38:07.208Z,27.90
2024-05-09T12:40:37.509Z,27.90
2024-05-09T12:43:07.790Z,28.20
2024-05-09T12:45:35.693Z,29.80
2024-05-09T12:48:04.526Z,32.80
2024-05-09T12:50:33.945Z,34.70
2024-05-09T12:53:02.782Z,30.30
2024-05-09T12:55:36.614Z,30.60
2024-05-09T12:58:09.096Z,29.00
2024-05-09T13:00:36.194Z,29.80
2024-05-09T13:03:03.827Z,28.50
2024-05-09T13:05:30.991Z,28.80
2024-05-09T13:07:58.220Z,28.40
2024-05-09T13:10:31.790Z,28.80
2024-05-09T13:13:01.874Z,30.20
2024-05-09T13:15:31.103Z,30.40
2024-05-09T13:18:01.668Z,31.90
2024-05-09T13:20:33.630Z,33.90
2024-05-09T13:23:04.363Z,33.40
2024-05-09T13:25:31.992Z,33.60
2024-05-09T13:27:59.281Z,36.70
2024-05-09T13:30:35.502Z,36.70
2024-05-09T13:33:07.387Z,37.10
2024-05-09T13:35:35.675Z,40.90
2024-05-09T13:38:03.983Z,39.80
2024-05-09T13:40:34.691Z,41.30
2024-05-09T13:43:06.704Z,45.60
2024-05-09T13:45:34.321Z,45.00
2024-05-09T13:48:02.567Z,47.00
2024-05-09T13:50:35.957Z,45.00
2024-05-09T13:53:08.357Z,44.10
2024-05-09T13:55:38.522Z,44.80
2024-05-09T13:58:06.310Z,43.40
2024-05-09T14:00:44.046Z,42.80
2024-05-09T14:03:16.653Z,43.70
2024-05-09T14:05:45.725Z,45.50
2024-05-09T14:08:15.134Z,47.60
2024-05-09T14:10:44.552Z,49.10
2024-05-09T14:13:12.782Z,49.00
2024-05-09T14:15:39.877Z,48.90
2024-05-09T14:18:11.432Z,50.80
2024-05-09T14:20:40.909Z,48.30
2024-05-09T14:23:07.787Z,48.80
2024-05-09T14:25:38.761Z,51.40
2024-05-09T14:28:09.326Z,49.70
2024-05-09T14:30:38.106Z,48.80
2024-05-09T14:33:07.443Z,50.10
2024-05-09T14:35:35.508Z,50.90
2024-05-09T14:38:03.220Z,52.00
2024-05-09T14:40:40.421Z,51.70
2024-05-09T14:43:12.076Z,52.70
2024-05-09T14:45:39.644Z,53.80
2024-05-09T14:48:07.521Z,53.50
2024-05-09T14:50:38.365Z,52.90
2024-05-09T14:53:11.589Z,51.60
2024-05-09T14:55:40.932Z,50.10
2024-05-09T14:58:10.772Z,51.50
2024-05-09T15:00:47.760Z,54.40
2024-05-09T15:03:21.589Z,52.00
2024-05-09T15:05:49.834Z,52.20
2024-05-09T15:08:18.222Z,52.10
2024-05-09T15:10:46.366Z,50.90
2024-05-09T15:13:16.420Z,50.60
2024-05-09T15:15:44.010Z,50.80
2024-05-09T15:18:11.106Z,52.60
2024-05-09T15:20:39.310Z,52.00
2024-05-09T15:23:07.149Z,53.60
2024-05-09T15:25:34.833Z,53.80
2024-05-09T15:28:02.114Z,56.20
2024-05-09T15:30:32.141Z,54.40
2024-05-09T15:33:03.380Z,54.70
2024-05-09T15:35:30.513Z,54.70
2024-05-09T15:37:57.354Z,54.90
2024-05-09T15:40:35.017Z,55.20
2024-05-09T15:43:07.443Z,54.80
2024-05-09T15:45:35.502Z,56.20
2024-05-09T15:48:03.324Z,55.30
2024-05-09T15:50:37.211Z,55.60
2024-05-09T15:53:08.409Z,58.00
2024-05-09T15:55:36.424Z,58.50
2024-05-09T15:58:04.398Z,58.50
2024-05-09T16:03:01.938Z,59.60
2024-05-09T16:05:28.862Z,59.00
2024-05-09T16:07:55.844Z,57.70
2024-05-09T16:10:26.151Z,57.10
2024-05-09T16:12:59.353Z,57.40
2024-05-09T16:15:26.208Z,57.90
2024-05-09T16:17:53.923Z,56.60
2024-05-09T16:20:33.411Z,57.90
2024-05-09T16:23:05.770Z,58.60
2024-05-09T16:25:32.606Z,58.00
2024-05-09T16:28:00.138Z,59.40
2024-05-09T16:30:31.950Z,58.60
2024-05-09T16:33:03.046Z,57.30
2024-05-09T16:35:30.284Z,57.90
2024-05-09T16:37:58.153Z,58.30
2024-05-09T16:40:34.101Z,59.20
2024-05-09T16:43:05.766Z,59.60
2024-05-09T16:45:33.727Z,58.10
2024-05-09T16:48:01.367Z,59.60
2024-05-09T16:50:33.142Z,59.60
2024-05-09T16:53:02.564Z,59.60
2024-05-09T16:55:29.798Z,58.90
2024-05-09T16:57:57.229Z,59.30
2024-05-09T17:00:35.767Z,58.90
2024-05-09T17:03:09.909Z,59.90
2024-05-09T17:05:37.788Z,61.00
2024-05-09T17:08:05.313Z,62.50
2024-05-09T17:10:34.327Z,62.60
2024-05-09T17:13:04.255Z,61.70
2024-05-09T17:15:32.838Z,62.40
2024-05-09T17:18:00.648Z,60.00
2024-05-09T17:20:33.107Z,62.70
2024-05-09T17:23:04.438Z,63.80
2024-05-09T17:25:31.774Z,64.50
2024-05-09T17:28:05.871Z,64.60
2024-05-09T17:30:39.277Z,65.50
2024-05-09T17:33:09.695Z,67.20
2024-05-09T17:35:37.590Z,67.00
2024-05-09T17:38:05.815Z,68.30
2024-05-09T17:40:36.036Z,68.90
2024-05-09T17:43:06.268Z,69.80
2024-05-09T17:45:34.897Z,68.90
2024-05-09T17:48:02.294Z,67.80
2024-05-09T17:50:35.240Z,68.50
2024-05-09T17:53:05.004Z,70.10
2024-05-09T17:55:32.293Z,71.20
2024-05-09T17:57:59.696Z,70.40
2024-05-09T18:02:56.384Z,73.00
2024-05-09T18:05:23.948Z,73.30
2024-05-09T18:07:50.979Z,73.90
2024-05-09T18:10:25.276Z,74.40
2024-05-09T18:12:56.757Z,75.90
2024-05-09T18:15:23.569Z,77.00
2024-05-09T18:17:52.844Z,77.60
2024-05-09T18:20:28.765Z,78.20
2024-05-09T18:23:05.468Z,78.90
2024-05-09T18:25:32.275Z,81.80
2024-05-09T18:27:59.278Z,87.90
2024-05-09T18:30:32.461Z,90.10
2024-05-09T18:33:02.292Z,92.10
2024-05-09T18:35:29.849Z,93.70
2024-05-09T18:37:56.760Z,95.70
2024-05-09T18:42:53.580Z,99.00
2024-05-09T18:45:20.398Z,99.90
2024-05-09T18:47:47.628Z,99.90
2024-05-09T18:50:20.921Z,99.90
2024-05-09T18:52:55.868Z,99.90
2024-05-09T18:55:22.895Z,99.90
2024-05-09T18:57:49.708Z,99.90
2024-05-09T19:00:30.869Z,99.90
2024-05-09T19:03:02.345Z,99.90
2024-05-09T19:05:29.884Z,99.90
2024-05-09T19:07:56.941Z,99.90
2024-05-09T19:10:28.797Z,99.90
2024-05-09T19:13:00.232Z,99.90
2024-05-09T19:15:27.066Z,99.90
2024-05-09T19:17:54.127Z,99.90
2024-05-09T19:20:28.548Z,99.90
2024-05-09T19:23:00.684Z,99.90
2024-05-09T19:25:27.472Z,99.90
2024-05-09T19:27:54.252Z,99.90
2024-05-09T19:30:29.733Z,99.90
2024-05-09T19:33:04.941Z,99.90
2024-05-09T19:35:32.469Z,99.90
2024-05-09T19:37:59.462Z,99.90
2024-05-09T19:40:31.383Z,99.90
2024-05-09T19:43:02.463Z,99.90
2024-05-09T19:45:30.101Z,99.90
2024-05-09T19:47:57.394Z,99.90
2024-05-09T19:50:32.448Z,99.90
2024-05-09T19:53:07.386Z,99.90
2024-05-09T19:55:35.208Z,99.90
2024-05-09T19:58:05.280Z,99.90
2024-05-09T20:00:40.084Z,99.90
2024-05-09T20:03:10.043Z,99.90
2024-05-09T20:05:37.942Z,99.90
2024-05-09T20:08:06.137Z,99.90
2024-05-09T20:10:35.316Z,99.90
2024-05-09T20:13:04.695Z,99.90
2024-05-09T20:15:34.589Z,99.90
2024-05-09T20:18:01.782Z,99.90
2024-05-09T20:20:36.443Z,99.90
2024-05-09T20:23:07.017Z,99.90
2024-05-09T20:25:34.009Z,99.90
2024-05-09T20:28:01.345Z,99.90
2024-05-09T20:30:32.397Z,99.90
2024-05-09T20:33:04.435Z,99.90
2024-05-09T20:35:33.102Z,99.90
2024-05-09T20:38:01.374Z,99.90
2024-05-09T20:40:33.216Z,99.90
2024-05-09T20:43:03.977Z,99.90
2024-05-09T20:45:31.365Z,99.90
2024-05-09T20:47:58.469Z,99.90
2024-05-09T20:50:35.648Z,99.90
2024-05-09T20:53:08.506Z,99.90
2024-05-09T20:55:35.667Z,99.90
2024-05-09T20:58:02.526Z,99.90
2024-05-09T21:00:35.558Z,99.90
2024-05-09T21:03:07.628Z,99.90
2024-05-09T21:05:35.183Z,99.90
2024-05-09T21:08:02.740Z,99.90
2024-05-09T21:10:33.189Z,99.90
2024-05-09T21:13:02.559Z,99.90
2024-05-09T21:15:30.627Z,99.90
2024-05-09T21:17:57.662Z,99.90
2024-05-09T21:20:30.926Z,99.90
2024-05-09T21:22:59.866Z,99.90
2024-05-09T21:25:26.731Z,99.90
2024-05-09T21:27:54.084Z,99.90
2024-05-09T21:30:31.865Z,99.90
2024-05-09T21:33:09.624Z,99.90
2024-05-09T21:35:38.205Z,99.90
2024-05-09T21:38:05.774Z,99.90
2024-05-09T21:40:35.308Z,99.90
2024-05-09T21:43:04.476Z,99.90
2024-05-09T21:45:31.719Z,99.90
2024-05-09T21:47:59.195Z,99.90
2024-05-09T21:50:32.056Z,99.90
2024-05-09T21:53:06.786Z,99.90
2024-05-09T21:55:34.339Z,99.90
2024-05-09T21:58:01.865Z,99.90
2024-05-09T22:00:35.536Z,99.90
2024-05-09T22:03:06.050Z,99.90
2024-05-09T22:05:33.631Z,99.90
2024-05-09T22:08:01.001Z,99.90
2024-05-09T22:10:33.760Z,99.90
2024-05-09T22:13:03.001Z,99.90
2024-05-09T22:15:30.286Z,99.90
2024-05-09T22:17:57.684Z,99.90
2024-05-09T22:20:34.146Z,99.90
2024-05-09T22:23:05.285Z,99.90
2024-05-09T22:25:32.816Z,99.90
2024-05-09T22:28:01.294Z,99.90
2024-05-09T22:30:35.784Z,99.90
2024-05-09T22:33:10.763Z,99.90
2024-05-09T22:35:39.503Z,99.90
2024-05-09T22:38:06.785Z,99.90
2024-05-09T22:40:43.304Z,99.90
2024-05-09T22:43:24.208Z,99.90
2024-05-09T22:45:52.997Z,99.90
2024-05-09T22:48:20.370Z,99.90
2024-05-09T22:50:47.721Z,99.90
2024-05-09T22:53:14.716Z,99.90
2024-05-09T22:55:41.715Z,99.90
2024-05-09T22:58:09.179Z,99.90
2024-05-09T23:00:36.192Z,99.90
2024-05-09T23:03:03.644Z,99.90
2024-05-09T23:05:32.491Z,99.90
2024-05-09T23:08:01.740Z,99.90
2024-05-09T23:10:35.555Z,99.90
2024-05-09T23:13:05.956Z,99.90
2024-05-09T23:15:34.571Z,99.90
2024-05-09T23:18:01.621Z,99.90
2024-05-09T23:20:36.501Z,99.90
2024-05-09T23:23:07.250Z,99.90
2024-05-09T23:25:34.767Z,99.90
2024-05-09T23:28:01.763Z,99.90
2024-05-09T23:30:36.493Z,99.90
2024-05-09T23:33:07.116Z,99.90
2024-05-09T23:35:34.094Z,99.90
2024-05-09T23:38:01.189Z,99.90
2024-05-09T23:40:37.643Z,99.90
2024-05-09T23:43:08.179Z,99.90
2024-05-09T23:45:35.670Z,99.90
2024-05-09T23:48:03.319Z,99.90
2024-05-09T23:50:34.799Z,99.90
2024-05-09T23:53:05.752Z,99.90
2024-05-09T23:55:32.977Z,99.90
2024-05-09T23:58:00.758Z,99.90
